ELU weather

Guemar Airport
Guemar, El Oued Province, Algeria

Public forecast

Using degrees Celsius for public forecast. Weather courtesy of forecast.io.

Current aviation weather report (METAR) for Guemar Airport

Retrieved 2019/10/14 05:00 UTC (20 minutes ago):

DAUO 140500Z 08003KT CAVOK 18/14 Q1019

Aviation forecast (TAF) for Guemar Airport

Forecast is more than 12 hours old.

Retrieved 2017/11/09 18:03 UTC (2 years ago):

TAF DAUO 091700Z 0918/1009 28010KT 9999 SCT033 SCT100 PROB30 TEMPO 0918/0924 28015G25KT 5000 -TSRA FEW036CB